Air Navigation Services of Czech Republic
Airport: LKKB Updated:  28.01.2021 00:27:24  UTC
 METAR LKKB 28.01. 00:30 ...
METAR LKKB 280030Z 21009KT 9999 FEW016 BKN031 M00/M03 Q1011 RMK BLU=
 TAF LKKB 27.01. 23:00 ...
TAF LKKB 272300Z 2800/2900 20010KT 9999 BKN030      TEMPO 2800/2806 4000 SN BR BKN010 OVC020      TEMPO 2810/2815 4000 RASN BR BKN007 OVC015      BECMG 2815/2818 6000 RASN BKN007 OVC020      PROB40 TEMPO 2817/2900 0600 SN BR OVC002=
 WARNING LKKB 27.01. 22:25 ...
LKKB AD WRNG 2 VALID 272225/280425 SN LESS THAN 1 CM FCST=